Time;durP1;ratioP1;P1;durP2;ratioP2;P2;SDS_P1;SDS_P2;PMS_P1;PMS_P2;Temp;Humidity;BMP_temperature;BMP_pressure;BME280_temperature;BME280_humidity;BME280_pressure;Samples;Min_cycle;Max_cycle;Signal;HPM_P1;HPM_P2
2021/12/24 00:01:55;;;;;;;22.00;11.45;;;;;;;10.68;100.00;99602.28;8324569;28;20033;-65
2021/12/24 00:05:56;;;;;;;21.80;11.65;;;;;;;10.68;100.00;99601.41;8322896;28;20505;-65
2021/12/24 00:09:56;;;;;;;25.35;12.27;;;;;;;10.50;100.00;99595.28;8311839;28;20408;-65
2021/12/24 00:13:59;;;;;;;24.40;11.32;;;;;;;10.33;100.00;99594.34;8313801;28;20037;-65
2021/12/24 00:18:09;;;;;;;22.67;12.18;;;;;;;10.27;100.00;99588.75;8314177;28;20121;-65
2021/12/24 00:22:31;;;;;;;25.15;12.82;;;;;;;10.18;100.00;99600.53;8321892;28;20057;-65
2021/12/24 00:35:28;;;;;;;18.20;10.93;;;;;;;10.39;100.00;99582.91;8328763;28;20045;-65
2021/12/24 00:39:28;;;;;;;18.33;11.05;;;;;;;10.37;100.00;99584.91;8297733;28;20045;-65
2021/12/24 00:43:29;;;;;;;20.73;11.65;;;;;;;10.31;100.00;99573.91;8330107;28;20038;-65
2021/12/24 00:47:29;;;;;;;18.58;10.80;;;;;;;10.22;100.00;99564.94;8329248;28;20045;-65
2021/12/24 00:51:42;;;;;;;25.60;12.27;;;;;;;10.09;100.00;99564.50;8329849;28;20088;-65
2021/12/24 00:55:43;;;;;;;18.35;11.80;;;;;;;10.11;100.00;99578.72;8330130;28;20040;-65
2021/12/24 00:59:43;;;;;;;23.23;11.27;;;;;;;10.15;100.00;99574.66;8309513;28;20042;-65
2021/12/24 01:03:44;;;;;;;22.67;12.27;;;;;;;10.18;100.00;99574.34;8312552;28;20042;-65
2021/12/24 01:07:45;;;;;;;19.73;12.05;;;;;;;10.20;100.00;99577.75;8328290;28;20091;-65
2021/12/24 01:11:45;;;;;;;19.55;11.63;;;;;;;10.18;100.00;99574.34;8305170;28;20460;-65
2021/12/24 01:16:19;;;;;;;18.75;10.55;;;;;;;10.14;100.00;99572.97;8295998;28;20107;-65
2021/12/24 01:20:21;;;;;;;19.35;11.15;;;;;;;10.06;100.00;99575.59;8307099;28;20312;-65
2021/12/24 01:24:29;;;;;;;16.92;9.85;;;;;;;10.08;100.00;99581.72;8301042;28;20493;-65
2021/12/24 01:38:08;;;;;;;15.02;9.43;;;;;;;10.14;100.00;99572.97;8336133;28;20044;-64
2021/12/24 01:42:40;;;;;;;14.60;8.65;;;;;;;10.14;100.00;99562.19;8336412;28;20367;-64
2021/12/24 01:45:37;;;;;;;15.90;9.05;;;;;;;10.14;100.00;99561.31;8335127;28;20034;-64
2021/12/24 01:49:38;;;;;;;15.93;8.77;;;;;;;10.18;100.00;99563.53;8327959;28;20170;-64
2021/12/24 01:53:38;;;;;;;11.63;7.85;;;;;;;10.22;100.00;99573.03;8303299;28;20032;-64
2021/12/24 01:57:41;;;;;;;13.05;8.07;;;;;;;10.22;100.00;99574.88;8312199;28;20091;-64
2021/12/24 02:01:42;;;;;;;16.38;8.70;;;;;;;10.21;100.00;99571.31;8337433;28;20116;-64
2021/12/24 02:05:44;;;;;;;12.07;8.35;;;;;;;10.36;100.00;99561.59;8321639;28;20038;-64
2021/12/24 02:09:44;;;;;;;13.20;8.13;;;;;;;10.42;100.00;99582.56;8323988;28;20037;-64
2021/12/24 02:13:44;;;;;;;18.80;9.63;;;;;;;10.40;100.00;99576.47;8306170;28;20040;-64
2021/12/24 02:18:13;;;;;;;18.10;10.75;;;;;;;10.46;100.00;99575.81;8304298;28;20048;-64
2021/12/24 02:30:55;;;;;;;23.88;10.35;;;;;;;10.48;100.00;99572.97;8331181;28;20030;-64
2021/12/24 02:34:56;;;;;;;18.88;9.10;;;;;;;10.49;100.00;99564.69;8334113;28;20043;-64
2021/12/24 02:38:56;;;;;;;19.15;10.23;;;;;;;10.47;100.00;99545.13;8314011;28;20046;-64
2021/12/24 02:42:59;;;;;;;23.02;10.68;;;;;;;10.46;100.00;99539.88;8319124;28;20064;-64
2021/12/24 02:55:25;;;;;;;18.00;10.30;;;;;;;10.47;100.00;99537.00;8294503;28;20030;-67
2021/12/24 02:59:26;;;;;;;20.67;10.55;;;;;;;10.50;100.00;99536.69;8293075;28;20129;-67
2021/12/24 03:03:27;;;;;;;20.77;11.02;;;;;;;10.41;100.00;99526.84;8322775;28;20044;-67
2021/12/24 03:07:27;;;;;;;21.07;11.43;;;;;;;10.32;100.00;99530.53;8325243;28;20041;-67
2021/12/24 03:11:28;;;;;;;23.50;11.85;;;;;;;10.30;100.00;99543.34;8325616;28;20671;-67
2021/12/24 03:15:29;;;;;;;24.98;12.27;;;;;;;10.19;100.00;99537.41;8325330;28;20037;-68
2021/12/24 03:19:32;;;;;;;26.10;11.70;;;;;;;10.18;100.00;99528.44;8307251;28;20141;-67
2021/12/24 03:23:36;;;;;;;30.60;14.07;;;;;;;10.17;100.00;99529.44;8323861;28;20405;-68
2021/12/24 03:27:36;;;;;;;19.48;11.52;;;;;;;10.13;100.00;99538.91;8315995;28;20449;-67
2021/12/24 03:31:38;;;;;;;25.45;12.88;;;;;;;10.14;100.00;99521.69;8316528;28;20080;-68
2021/12/24 03:35:39;;;;;;;24.40;13.13;;;;;;;10.11;100.00;99530.09;8302057;28;20042;-68
2021/12/24 03:39:39;;;;;;;29.92;13.48;;;;;;;10.06;100.00;99535.09;8289998;28;20057;-68
2021/12/24 03:43:40;;;;;;;24.27;12.57;;;;;;;10.01;100.00;99534.75;8289840;28;20034;-67
2021/12/24 03:47:42;;;;;;;22.85;13.18;;;;;;;10.06;100.00;99534.25;8300599;28;20125;-67
2021/12/24 03:52:34;;;;;;;31.50;13.48;;;;;;;10.09;100.00;99526.69;8322482;28;20083;-67
2021/12/24 03:56:03;;;;;;;27.90;12.45;;;;;;;10.13;100.00;99514.59;8323362;28;20033;-68
2021/12/24 04:00:13;;;;;;;24.45;13.68;;;;;;;10.12;100.00;99503.94;8322798;28;20037;-68
2021/12/24 04:04:13;;;;;;;28.23;13.77;;;;;;;10.02;100.00;99506.72;8313239;28;20171;-68
2021/12/24 04:08:15;;;;;;;25.73;13.38;;;;;;;10.09;100.00;99482.66;8323820;28;20041;-68
2021/12/24 04:12:16;;;;;;;25.35;13.20;;;;;;;10.17;100.00;99488.94;8323483;28;20052;-67
2021/12/24 04:16:16;;;;;;;30.13;12.13;;;;;;;10.30;100.00;99491.16;8324260;28;20045;-67
2021/12/24 04:25:08;;;;;;;23.27;11.98;;;;;;;10.39;100.00;99491.03;8297147;28;20041;-68
2021/12/24 04:28:58;;;;;;;22.48;11.75;;;;;;;10.47;100.00;99503.72;8322118;28;20033;-68
2021/12/24 04:33:11;;;;;;;26.50;12.57;;;;;;;10.49;100.00;99501.72;8323602;28;20034;-68
2021/12/24 04:51:19;;;;;;;21.63;11.60;;;;;;;10.46;100.00;99519.09;8323415;28;20060;-67
2021/12/24 05:03:26;;;;;;;30.20;13.85;;;;;;;10.39;100.00;99534.25;8309585;28;20029;-67
2021/12/24 05:08:29;;;;;;;24.03;12.67;;;;;;;10.41;100.00;99542.22;8323172;28;20045;-68
2021/12/24 05:11:47;;;;;;;20.90;11.40;;;;;;;10.43;100.00;99540.19;8323190;28;20037;-68
2021/12/24 05:15:51;;;;;;;20.27;11.88;;;;;;;10.41;100.00;99548.47;8325845;28;20042;-67
2021/12/24 05:24:14;;;;;;;26.35;12.75;;;;;;;10.38;100.00;99539.84;8322724;28;20495;-67
2021/12/24 05:28:16;;;;;;;29.98;13.13;;;;;;;10.38;100.00;99550.63;8321032;28;20048;-67
2021/12/24 05:32:17;;;;;;;29.90;13.20;;;;;;;10.36;100.00;99553.50;8328192;28;20083;-67
2021/12/24 05:36:17;;;;;;;32.67;13.95;;;;;;;10.33;100.00;99548.41;8320664;28;20112;-67
2021/12/24 05:40:18;;;;;;;31.77;13.07;;;;;;;10.34;100.00;99551.97;8317386;28;20471;-67
2021/12/24 05:44:18;;;;;;;23.77;12.45;;;;;;;10.42;100.00;99566.34;8327035;28;20099;-68
2021/12/24 05:48:19;;;;;;;32.92;13.95;;;;;;;10.39;100.00;99560.41;8327786;28;20064;-67
2021/12/24 05:52:19;;;;;;;32.60;12.93;;;;;;;10.34;100.00;99558.22;8327966;28;20029;-67
2021/12/24 05:56:20;;;;;;;27.05;12.60;;;;;;;10.32;100.00;99562.94;8326317;28;20040;-67
2021/12/24 06:00:20;;;;;;;21.83;11.70;;;;;;;10.33;100.00;99567.34;8327944;28;20037;-67
2021/12/24 06:04:21;;;;;;;26.10;13.23;;;;;;;10.29;100.00;99565.97;8327443;28;20048;-67
2021/12/24 06:08:21;;;;;;;29.00;12.55;;;;;;;10.25;100.00;99559.22;8327069;28;20405;-67
2021/12/24 06:12:22;;;;;;;29.17;12.68;;;;;;;10.22;100.00;99564.94;8332813;28;20041;-67
2021/12/24 06:16:22;;;;;;;24.23;12.93;;;;;;;10.26;100.00;99579.81;8323211;28;20037;-67
2021/12/24 06:20:25;;;;;;;27.08;13.00;;;;;;;10.21;100.00;99579.44;8314041;28;20034;-67
2021/12/24 06:24:25;;;;;;;19.58;11.38;;;;;;;10.23;100.00;99566.63;8317453;28;20390;-67
2021/12/24 06:28:27;;;;;;;27.52;12.70;;;;;;;10.19;100.00;99565.25;8326597;28;20045;-67
2021/12/24 06:32:27;;;;;;;30.70;13.73;;;;;;;10.16;100.00;99564.72;8326590;28;20195;-67
2021/12/24 06:36:30;;;;;;;27.10;13.25;;;;;;;10.21;100.00;99563.22;8326748;28;20021;-67
2021/12/24 06:40:31;;;;;;;25.45;11.95;;;;;;;10.24;100.00;99557.50;8325734;28;20049;-68
2021/12/24 06:44:32;;;;;;;25.40;11.70;;;;;;;10.28;100.00;99550.75;8326297;28;20493;-67
2021/12/24 06:48:33;;;;;;;26.02;12.02;;;;;;;10.33;100.00;99556.53;8322339;28;20052;-67
2021/12/24 06:52:33;;;;;;;29.15;12.63;;;;;;;10.32;100.00;99554.00;8325741;28;20033;-67
2021/12/24 06:56:34;;;;;;;21.13;10.82;;;;;;;10.29;100.00;99555.16;8325612;28;20052;-67
2021/12/24 07:00:35;;;;;;;26.90;12.50;;;;;;;10.31;100.00;99561.22;8325513;28;20048;-67
2021/12/24 07:04:35;;;;;;;24.23;12.00;;;;;;;10.32;100.00;99560.25;8325401;28;20446;-67
2021/12/24 07:08:36;;;;;;;22.25;10.90;;;;;;;10.35;100.00;99565.31;8309683;28;20080;-67
2021/12/24 07:12:37;;;;;;;23.55;11.68;;;;;;;10.36;100.00;99567.00;8310680;28;20041;-67
2021/12/24 07:16:37;;;;;;;21.17;11.43;;;;;;;10.43;100.00;99564.50;8315744;28;20124;-68
2021/12/24 07:20:37;;;;;;;27.85;11.85;;;;;;;10.50;100.00;99569.09;8328197;28;20033;-67
2021/12/24 07:24:38;;;;;;;29.55;12.02;;;;;;;10.46;100.00;99567.72;8298667;28;20049;-64
2021/12/24 07:28:39;;;;;;;26.90;11.65;;;;;;;10.48;100.00;99576.50;8311510;28;20057;-64
2021/12/24 07:32:41;;;;;;;25.35;12.70;;;;;;;10.49;100.00;99578.19;8313419;28;20037;-64
2021/12/24 07:36:41;;;;;;;26.10;11.73;;;;;;;10.46;100.00;99581.22;8326954;28;20040;-64
2021/12/24 07:40:44;;;;;;;25.38;12.35;;;;;;;10.42;100.00;99577.16;8326179;28;20049;-64
2021/12/24 07:44:44;;;;;;;29.58;12.18;;;;;;;10.45;100.00;99574.13;8319160;28;20041;-64
2021/12/24 07:48:48;;;;;;;35.15;13.80;;;;;;;10.45;100.00;99581.38;8328700;28;20099;-64
2021/12/24 07:52:49;;;;;;;35.85;15.27;;;;;;;10.46;100.00;99577.69;8332693;28;20026;-64
2021/12/24 07:56:49;;;;;;;26.77;11.15;;;;;;;10.48;100.00;99579.22;8325845;28;20048;-64
2021/12/24 08:00:51;;;;;;;22.38;11.45;;;;;;;10.42;100.00;99582.56;8324704;28;20045;-64
2021/12/24 08:04:53;;;;;;;28.10;11.82;;;;;;;10.37;100.00;99593.00;8308570;28;20103;-64
2021/12/24 08:08:53;;;;;;;27.92;12.63;;;;;;;10.30;100.00;99589.25;8312623;28;20118;-64
2021/12/24 08:12:54;;;;;;;22.92;12.35;;;;;;;10.38;100.00;99596.56;8334418;28;20037;-64
2021/12/24 08:16:54;;;;;;;24.13;11.45;;;;;;;10.39;100.00;99592.84;8323657;28;20046;-64
2021/12/24 08:20:54;;;;;;;24.48;12.68;;;;;;;10.47;100.00;99596.44;8325643;28;20038;-64
2021/12/24 08:24:55;;;;;;;26.70;12.23;;;;;;;10.50;100.00;99601.53;8327771;28;20033;-64
2021/12/24 08:28:55;;;;;;;29.00;11.38;;;;;;;10.50;100.00;99582.63;8322014;28;20111;-64
2021/12/24 08:33:00;;;;;;;30.25;11.90;;;;;;;10.49;100.00;99575.50;8321406;28;20034;-65
2021/12/24 08:37:01;;;;;;;33.30;10.70;;;;;;;10.50;100.00;99569.09;8312081;28;20044;-64
2021/12/24 08:41:02;;;;;;;22.60;10.05;;;;;;;10.55;100.00;99561.34;8320415;28;20034;-64
2021/12/24 08:45:03;;;;;;;21.92;10.35;;;;;;;10.57;100.00;99562.03;8324508;28;20037;-64
2021/12/24 08:49:05;;;;;;;20.98;9.38;;;;;;;10.59;100.00;99565.41;8324067;28;20041;-64
2021/12/24 08:53:06;;;;;;;22.60;10.75;;;;;;;10.64;100.00;99565.75;8308940;28;20042;-64
2021/12/24 08:57:07;;;;;;;27.60;11.10;;;;;;;10.66;100.00;99547.53;8302081;28;20057;-64
2021/12/24 09:01:07;;;;;;;28.77;9.95;;;;;;;10.67;100.00;99538.41;8303811;28;20041;-64
2021/12/24 09:05:09;;;;;;;22.63;10.10;;;;;;;10.70;100.00;99532.66;8306752;28;20041;-64
2021/12/24 09:09:10;;;;;;;20.25;8.80;;;;;;;10.73;100.00;99532.34;8313741;28;20068;-64
2021/12/24 09:13:10;;;;;;;21.63;9.15;;;;;;;10.83;100.00;99534.91;8319889;28;20511;-64
2021/12/24 09:17:11;;;;;;;24.50;9.13;;;;;;;10.92;100.00;99532.03;8319964;28;20168;-64
2021/12/24 09:21:16;;;;;;;27.10;9.20;;;;;;;10.91;100.00;99519.53;8308265;28;20467;-64
2021/12/24 09:25:17;;;;;;;25.80;9.02;;;;;;;10.95;99.73;99526.28;8313775;28;20048;-64
2021/12/24 09:29:19;;;;;;;24.23;9.23;;;;;;;10.96;100.00;99536.09;8312175;28;20037;-64
2021/12/24 09:33:19;;;;;;;27.40;8.35;;;;;;;10.95;100.00;99531.69;8319688;28;20132;-64
2021/12/24 09:37:20;;;;;;;24.67;9.18;;;;;;;10.93;100.00;99532.88;8318112;28;20041;-64
2021/12/24 09:41:21;;;;;;;30.33;8.77;;;;;;;10.92;100.00;99525.78;8317711;28;20048;-64
2021/12/24 09:45:21;;;;;;;32.53;13.18;;;;;;;10.91;100.00;99532.19;8311617;28;20405;-64
2021/12/24 09:49:24;;;;;;;24.73;9.88;;;;;;;10.80;100.00;99529.81;8310621;28;20056;-64
2021/12/24 09:53:24;;;;;;;27.67;10.27;;;;;;;10.81;100.00;99529.66;8287763;28;20111;-64
2021/12/24 09:57:25;;;;;;;22.40;9.10;;;;;;;10.80;100.00;99525.25;8313675;28;20033;-64
2021/12/24 10:01:31;;;;;;;22.05;8.75;;;;;;;10.81;100.00;99526.97;8308849;28;20583;-66
2021/12/24 10:05:40;;;;;;;22.20;8.10;;;;;;;10.88;100.00;99530.69;8301463;28;20487;-64
2021/12/24 10:09:43;;;;;;;23.15;8.52;;;;;;;10.89;100.00;99526.94;8303999;28;20101;-64
2021/12/24 10:13:46;;;;;;;25.00;8.32;;;;;;;10.96;100.00;99528.00;8310240;28;20353;-64
2021/12/24 10:17:47;;;;;;;18.45;8.27;;;;;;;10.97;99.99;99524.28;8311853;28;20215;-64
2021/12/24 10:21:57;;;;;;;23.90;7.95;;;;;;;11.16;99.19;99521.22;8302245;28;20056;-64
2021/12/24 10:26:10;;;;;;;17.05;8.82;;;;;;;11.38;98.22;99523.25;8316759;28;20564;-65
2021/12/24 10:34:35;;;;;;;21.75;6.40;;;;;;;11.84;95.60;99514.41;8471814;27;20170;-64
2021/12/24 10:38:36;;;;;;;27.13;8.02;;;;;;;11.89;95.60;99512.03;8425662;27;20036;-64
2021/12/24 10:42:39;;;;;;;25.67;7.57;;;;;;;11.82;95.43;99502.06;8429669;27;20044;-64
2021/12/24 10:46:40;;;;;;;18.60;7.18;;;;;;;11.75;96.16;99504.63;8435890;27;20044;-64
2021/12/24 10:50:49;;;;;;;20.88;7.72;;;;;;;11.75;96.29;99504.63;8434051;27;20047;-64
2021/12/24 10:59:06;;;;;;;23.23;7.05;;;;;;;12.03;93.70;99490.66;8296595;27;20399;-64
2021/12/24 11:03:11;;;;;;;20.33;6.28;;;;;;;12.18;92.79;99494.34;8275700;28;20038;-64
2021/12/24 11:07:36;;;;;;;17.52;5.35;;;;;;;12.18;92.37;99495.19;8284612;28;20064;-64
2021/12/24 11:11:36;;;;;;;13.05;6.30;;;;;;;12.46;91.57;99498.25;8288649;28;20057;-64
2021/12/24 11:15:41;;;;;;;23.35;7.28;;;;;;;12.44;90.70;99497.63;8275932;28;20336;-64
2021/12/24 11:19:50;;;;;;;33.75;9.60;;;;;;;12.38;91.38;99503.75;8254160;28;20461;-64
2021/12/24 11:23:52;;;;;;;19.50;6.93;;;;;;;12.51;91.26;99499.44;8262195;28;20046;-64
2021/12/24 11:27:52;;;;;;;24.25;5.97;;;;;;;12.89;87.91;99494.94;8258424;28;20080;-65
2021/12/24 11:31:53;;;;;;;26.05;6.72;;;;;;;12.66;89.21;99489.50;8258872;28;20043;-65
2021/12/24 11:35:57;;;;;;;15.60;5.85;;;;;;;12.90;88.83;99480.38;8255753;28;20039;-64
2021/12/24 11:40:01;;;;;;;15.87;5.77;;;;;;;12.80;89.18;99490.59;8260131;28;20046;-64
2021/12/24 11:44:06;;;;;;;13.63;4.20;;;;;;;12.49;88.84;99481.66;8249434;28;20614;-65
2021/12/24 11:48:06;;;;;;;15.68;5.22;;;;;;;12.24;90.89;99488.22;8247144;28;20149;-64
2021/12/24 11:52:08;;;;;;;18.50;5.53;;;;;;;12.15;91.98;99483.84;8252749;28;20046;-64
2021/12/24 11:56:12;;;;;;;24.85;5.38;;;;;;;12.05;92.50;99486.78;8259539;28;20046;-64
2021/12/24 12:00:13;;;;;;;17.05;5.00;;;;;;;11.93;92.70;99485.47;8245196;28;20047;-64
2021/12/24 12:04:16;;;;;;;24.30;5.50;;;;;;;11.96;92.89;99482.41;8246181;28;20053;-64
2021/12/24 12:12:40;;;;;;;20.70;4.85;;;;;;;12.36;91.19;99476.81;8350156;27;20396;-64
2021/12/24 12:21:08;;;;;;;18.05;5.05;;;;;;;11.93;92.86;99473.78;8480330;27;20451;-64
2021/12/24 12:25:12;;;;;;;16.05;5.88;;;;;;;11.82;93.67;99466.88;8476573;27;20102;-65
2021/12/24 12:29:29;;;;;;;20.30;5.38;;;;;;;11.87;91.95;99464.50;8472478;27;20778;-65
2021/12/24 12:33:32;;;;;;;23.65;5.80;;;;;;;11.93;91.88;99459.22;8468038;27;20039;-65
2021/12/24 12:37:45;;;;;;;21.67;5.65;;;;;;;12.12;91.47;99462.53;8442123;27;20539;-65
2021/12/24 12:41:48;;;;;;;16.73;4.93;;;;;;;12.26;91.22;99464.50;8451297;27;20573;-65
2021/12/24 12:45:55;;;;;;;21.23;6.05;;;;;;;12.18;91.99;99472.66;8441765;27;20035;-65
2021/12/24 12:50:15;;;;;;;16.60;5.25;;;;;;;12.14;92.43;99476.75;8440112;27;20520;-65
2021/12/24 12:54:38;;;;;;;17.05;5.38;;;;;;;12.10;91.65;99470.00;8432708;27;20046;-65
2021/12/24 12:58:40;;;;;;;18.08;5.20;;;;;;;12.02;92.68;99468.19;8422639;27;20044;-65
2021/12/24 13:03:06;;;;;;;20.75;5.50;;;;;;;11.89;93.82;99457.88;8423543;27;20040;-65
2021/12/24 13:07:07;;;;;;;20.85;5.40;;;;;;;11.84;94.02;99464.84;8437387;27;20645;-65
2021/12/24 13:11:12;;;;;;;26.10;6.30;;;;;;;11.78;94.13;99471.78;8432741;27;20487;-65
2021/12/24 13:15:16;;;;;;;20.77;6.15;;;;;;;11.68;95.46;99476.56;8422728;27;20371;-65
2021/12/24 13:23:31;;;;;;;20.88;6.15;;;;;;;11.55;97.14;99459.97;8403650;27;20398;-64
2021/12/24 13:27:37;;;;;;;22.98;7.03;;;;;;;11.51;97.92;99458.66;8393563;28;20055;-64
2021/12/24 13:31:39;;;;;;;22.63;6.88;;;;;;;11.51;98.37;99466.78;8389822;28;20041;-64
2021/12/24 13:35:43;;;;;;;17.02;5.82;;;;;;;11.39;99.45;99453.75;8405864;27;20078;-64
2021/12/24 13:39:47;;;;;;;18.67;5.93;;;;;;;11.26;100.00;99459.69;8408464;27;20047;-64
2021/12/24 13:43:47;;;;;;;19.70;6.80;;;;;;;11.09;100.00;99451.75;8382008;27;20081;-65
2021/12/24 13:48:01;;;;;;;24.83;7.03;;;;;;;11.01;100.00;99458.00;8378334;28;20350;-64
2021/12/24 13:56:25;;;;;;;17.48;6.63;;;;;;;10.97;100.00;99464.78;8362950;28;20032;-64
2021/12/24 14:00:29;;;;;;;21.95;7.45;;;;;;;11.00;100.00;99475.25;8372413;28;20473;-64
2021/12/24 14:04:32;;;;;;;19.23;6.63;;;;;;;11.12;100.00;99476.63;8360158;28;20500;-64
2021/12/24 14:08:36;;;;;;;20.25;6.25;;;;;;;11.14;100.00;99477.28;8374242;28;20136;-64
2021/12/24 14:12:38;;;;;;;20.48;7.25;;;;;;;11.15;100.00;99473.56;8371214;28;20113;-64
2021/12/24 14:21:45;;;;;;;25.58;6.50;;;;;;;11.19;100.00;99450.56;8385549;27;20823;-64
2021/12/24 14:25:14;;;;;;;26.75;5.78;;;;;;;11.23;100.00;99457.31;8329312;28;20052;-64
2021/12/24 14:29:41;;;;;;;26.23;6.15;;;;;;;11.22;100.00;99449.38;8378012;28;20541;-64
2021/12/24 14:33:47;;;;;;;20.80;6.55;;;;;;;11.23;100.00;99460.00;8345652;28;20069;-65
2021/12/24 14:38:00;;;;;;;26.20;6.88;;;;;;;11.25;100.00;99449.88;8323435;28;20493;-65
2021/12/24 14:42:08;;;;;;;23.27;6.70;;;;;;;11.24;100.00;99456.31;8340114;28;20044;-65
2021/12/24 14:46:09;;;;;;;14.85;6.07;;;;;;;11.19;100.00;99455.16;8332847;28;20475;-65
2021/12/24 14:50:12;;;;;;;22.52;5.72;;;;;;;11.04;100.00;99459.53;8316947;28;20418;-65
2021/12/24 14:54:12;;;;;;;26.48;5.90;;;;;;;11.01;100.00;99466.13;8330668;28;20059;-65
2021/12/24 14:58:26;;;;;;;21.63;6.00;;;;;;;10.96;100.00;99468.50;8319215;28;20045;-65
2021/12/24 15:02:26;;;;;;;14.88;4.72;;;;;;;10.91;100.00;99472.69;8329723;28;20643;-65
2021/12/24 15:06:32;;;;;;;24.05;5.65;;;;;;;10.87;100.00;99463.25;8326516;28;20454;-65
2021/12/24 15:10:33;;;;;;;17.63;4.95;;;;;;;10.84;100.00;99464.44;8314559;28;20342;-65
2021/12/24 15:14:40;;;;;;;21.23;5.50;;;;;;;10.75;100.00;99472.69;8300957;28;20500;-65
2021/12/24 15:18:40;;;;;;;28.42;6.03;;;;;;;10.70;100.00;99477.78;8336596;28;20041;-65
2021/12/24 15:22:41;;;;;;;23.10;5.70;;;;;;;10.66;100.00;99477.25;8336444;28;20038;-65
2021/12/24 15:26:43;;;;;;;22.52;7.50;;;;;;;10.72;100.00;99476.59;8335208;28;20464;-65
2021/12/24 15:30:45;;;;;;;29.50;8.25;;;;;;;10.74;100.00;99471.00;8307000;28;20496;-65
2021/12/24 15:34:45;;;;;;;23.20;6.82;;;;;;;10.66;100.00;99471.84;8291649;28;20050;-65
2021/12/24 15:38:46;;;;;;;23.85;6.93;;;;;;;10.60;100.00;99467.09;8302957;28;20126;-65
2021/12/24 15:42:49;;;;;;;27.17;6.53;;;;;;;10.64;100.00;99473.03;8298855;28;20029;-65
2021/12/24 15:46:49;;;;;;;21.27;7.03;;;;;;;10.59;100.00;99468.13;8300132;28;20105;-65
2021/12/24 15:50:51;;;;;;;20.13;6.05;;;;;;;10.64;100.00;99479.28;8298882;28;20041;-65
2021/12/24 15:54:52;;;;;;;24.58;6.05;;;;;;;10.57;100.00;99477.41;8315476;28;20044;-66
2021/12/24 15:58:52;;;;;;;21.98;6.90;;;;;;;10.52;100.00;99480.59;8313461;28;20053;-65
2021/12/24 16:02:53;;;;;;;21.27;8.45;;;;;;;10.54;100.00;99484.00;8315337;28;20124;-65
2021/12/24 16:06:53;;;;;;;19.85;7.25;;;;;;;10.57;100.00;99499.00;8315855;28;20293;-65
2021/12/24 16:10:54;;;;;;;25.17;7.93;;;;;;;10.57;100.00;99491.75;8315038;28;20107;-65
2021/12/24 16:14:57;;;;;;;23.05;7.25;;;;;;;10.58;100.00;99490.75;8282609;28;20046;-65
2021/12/24 16:18:57;;;;;;;25.15;7.57;;;;;;;10.57;100.00;99491.75;8281338;28;20124;-65
2021/12/24 16:22:58;;;;;;;25.17;7.68;;;;;;;10.59;100.00;99487.06;8297720;28;20104;-65
2021/12/24 16:26:58;;;;;;;28.13;8.05;;;;;;;10.67;100.00;99476.22;8300266;28;20421;-65
2021/12/24 16:30:59;;;;;;;27.38;7.93;;;;;;;10.68;100.00;99463.56;8303625;28;20421;-66
2021/12/24 16:35:10;;;;;;;25.98;7.70;;;;;;;10.73;100.00;99462.06;8317055;28;20043;-65
2021/12/24 16:39:12;;;;;;;27.10;8.15;;;;;;;10.72;100.00;99459.50;8288441;28;20060;-65
2021/12/24 16:43:12;;;;;;;22.20;7.13;;;;;;;10.67;100.00;99446.50;8303148;28;20042;-65
2021/12/24 16:47:13;;;;;;;28.42;9.07;;;;;;;10.60;100.00;99453.59;8303330;28;20040;-66
2021/12/24 16:51:14;;;;;;;23.98;8.35;;;;;;;10.46;100.00;99461.50;8314379;28;20049;-65
2021/12/24 16:55:18;;;;;;;26.45;9.27;;;;;;;10.32;100.00;99457.59;8294214;28;20084;-65
2021/12/24 16:59:20;;;;;;;31.33;9.57;;;;;;;10.21;100.00;99454.38;8311729;28;20111;-65
2021/12/24 17:03:21;;;;;;;22.85;8.88;;;;;;;9.96;100.00;99456.09;8310171;28;20049;-65
2021/12/24 17:07:21;;;;;;;24.38;8.88;;;;;;;9.76;100.00;99454.66;8296616;28;20465;-65
2021/12/24 17:11:27;;;;;;;27.48;9.25;;;;;;;9.46;100.00;99447.06;8305447;28;20038;-65
2021/12/24 17:15:27;;;;;;;27.65;10.45;;;;;;;9.21;100.00;99453.31;8269121;28;20043;-66
2021/12/24 17:19:27;;;;;;;22.17;10.30;;;;;;;9.19;100.00;99461.56;8308977;28;20061;-65
2021/12/24 17:23:28;;;;;;;29.33;10.02;;;;;;;9.31;100.00;99443.25;8312971;28;20045;-65
2021/12/24 17:27:28;;;;;;;31.25;10.23;;;;;;;9.35;100.00;99439.22;8299884;28;20124;-65
2021/12/24 17:31:29;;;;;;;25.85;10.90;;;;;;;9.32;100.00;99436.84;8296793;28;20076;-65
2021/12/24 17:35:29;;;;;;;30.23;10.50;;;;;;;9.33;100.00;99446.66;8300724;28;20048;-65
2021/12/24 17:39:30;;;;;;;34.30;11.88;;;;;;;9.15;100.00;99453.94;8300654;28;20037;-65
2021/12/24 17:43:30;;;;;;;32.35;10.65;;;;;;;8.93;100.00;99454.44;8303307;28;20040;-65
2021/12/24 17:47:31;;;;;;;37.35;11.68;;;;;;;8.74;100.00;99449.22;8304418;28;20041;-65
2021/12/24 17:51:32;;;;;;;31.13;10.70;;;;;;;8.50;100.00;99447.16;8258335;28;20501;-65
2021/12/24 17:55:32;;;;;;;26.80;9.77;;;;;;;8.49;100.00;99450.00;8295324;28;20668;-65
2021/12/24 17:59:33;;;;;;;33.10;10.73;;;;;;;8.48;100.00;99448.31;8301123;28;20394;-65
2021/12/24 18:03:33;;;;;;;32.05;10.88;;;;;;;8.45;100.00;99454.84;8301899;28;20129;-65
2021/12/24 18:07:34;;;;;;;31.35;11.73;;;;;;;8.71;100.00;99455.78;8281485;28;20060;-65
2021/12/24 18:11:35;;;;;;;32.47;11.82;;;;;;;8.78;100.00;99461.41;8300163;28;20041;-65
2021/12/24 18:15:35;;;;;;;27.67;12.30;;;;;;;9.04;100.00;99456.88;8296704;28;20045;-65
2021/12/24 18:19:35;;;;;;;31.98;13.45;;;;;;;9.13;100.00;99467.59;8285031;28;20886;-65
2021/12/24 18:23:38;;;;;;;42.08;14.13;;;;;;;9.11;100.00;99463.31;8287313;28;20046;-65
2021/12/24 18:27:38;;;;;;;28.08;13.98;;;;;;;9.11;100.00;99468.72;8294498;28;20050;-65
2021/12/24 18:31:38;;;;;;;31.08;17.20;;;;;;;9.11;100.00;99474.97;8290058;28;20044;-65
2021/12/24 18:35:39;;;;;;;41.67;16.13;;;;;;;9.06;100.00;99468.38;8307723;28;24836;-65
2021/12/24 18:39:39;;;;;;;37.35;16.42;;;;;;;9.13;100.00;99461.34;8297626;28;20168;-65
2021/12/24 18:43:40;;;;;;;33.17;15.18;;;;;;;9.19;100.00;99458.88;8312504;28;20050;-65
2021/12/24 18:47:41;;;;;;;34.03;16.77;;;;;;;9.25;100.00;99463.63;8312280;28;20527;-66
2021/12/24 18:51:41;;;;;;;31.85;15.27;;;;;;;9.11;100.00;99464.19;8336102;28;20436;-66
2021/12/24 18:55:41;;;;;;;25.08;13.57;;;;;;;9.07;100.00;99457.44;8317997;28;20041;-66
2021/12/24 18:59:44;;;;;;;24.27;14.73;;;;;;;8.94;100.00;99466.91;8317374;28;20095;-66
2021/12/24 19:03:45;;;;;;;28.48;13.60;;;;;;;8.71;100.00;99461.16;8302426;28;20046;-66
2021/12/24 19:07:46;;;;;;;28.17;13.73;;;;;;;8.85;100.00;99468.72;8298190;28;20497;-66
2021/12/24 19:11:46;;;;;;;32.60;13.30;;;;;;;8.89;100.00;99466.53;8309145;28;20068;-66
2021/12/24 19:15:46;;;;;;;33.40;15.15;;;;;;;9.19;100.00;99460.72;8291977;28;20045;-66
2021/12/24 19:19:47;;;;;;;31.10;13.40;;;;;;;9.01;100.00;99457.19;8293488;28;20041;-66
2021/12/24 19:23:47;;;;;;;28.02;12.80;;;;;;;8.99;100.00;99464.59;8345803;28;20052;-66
2021/12/24 19:27:48;;;;;;;37.90;14.85;;;;;;;8.87;100.00;99465.81;8321975;28;20183;-66
2021/12/24 19:31:52;;;;;;;27.63;14.18;;;;;;;9.04;100.00;99478.44;8292352;28;20133;-66
2021/12/24 19:35:52;;;;;;;30.88;15.32;;;;;;;8.97;100.00;99477.38;8282007;28;20107;-66
2021/12/24 19:39:53;;;;;;;28.60;14.82;;;;;;;8.89;100.00;99469.22;8281643;28;20095;-66
2021/12/24 19:43:53;;;;;;;33.60;16.13;;;;;;;8.71;100.00;99465.69;8299969;28;20057;-66
2021/12/24 19:47:54;;;;;;;36.97;16.30;;;;;;;8.92;100.00;99463.53;8304625;28;20045;-66
2021/12/24 19:51:54;;;;;;;31.67;17.08;;;;;;;9.05;100.00;99453.19;8297868;28;20033;-66
2021/12/24 19:55:56;;;;;;;32.42;17.80;;;;;;;9.14;100.00;99457.63;8295752;28;20034;-66
2021/12/24 19:59:56;;;;;;;30.23;16.15;;;;;;;9.24;100.00;99458.41;8298709;28;20037;-66
2021/12/24 20:03:57;;;;;;;31.25;16.13;;;;;;;9.23;100.00;99456.69;8279916;28;20052;-66
2021/12/24 20:07:59;;;;;;;30.95;15.30;;;;;;;9.32;100.00;99450.34;8294634;28;20068;-66